Pagina principale
METAR-TAF:

METAR-TAF

Aeroporti :

Aeroporto di Harbin-Taiping

Harbin, Cina

latitudine: 45-45N, longitudine: 126-46E, altezza: 143 m

Osservazione

Il bollettino è stato emesso 19 minuti fa, alle 23:00 UTC
Vento 6 kt da nord/nord-ovest, variando fra ovest e nord/nord-est
Temperature 16°C
Umidità 48%
Pressione 1006 hPa
Visibilità 10 km o più
nessuna nube inferiore a 1500 m e nessun cumulonembo

METAR: ZYHB 242300Z 33003MPS 260V020 CAVOK 16/05 Q1006 NOSIG

Ora: 07:19 (23:19 UTC)

Previsione

Il bollettino è stato emesso 8 ore e 11 minuti fa, alle 15:08 UTC
Previsione valida dal 24 alle 18 UTC al 25 alle 18 UTC
Vento 8 kt da nord
Visibilità: 6000 m
Nubi sparse ad un'altezza di 3000 ft

TAF: ZYHB 241508Z 2418/2518 35004MPS 6000 SCT030 TX24/2506Z TN08/2421Z

Osservazioni e previsioni meteorologiche di più di 4000 aeroporti (messaggi METAR e TAF).

Le stazioni disponibili sono rappresentate dai dischi gialli e rossi sulla carta.

Puntare il mouse per vedere il nome della stazione.

Clicca sopra per visualizzare le osservazioni e previsioni meteorologiche.

Per cambiare la mappa : fare clic sui pulsanti verdi con una croce nera per ingrandire, il pulsante verde con un trattino per diminuire, o sulla freccia verde per le mappe adiacenti.


METAR-TAF: